Time;durP1;ratioP1;P1;durP2;ratioP2;P2;SDS_P1;SDS_P2;PMS_P1;PMS_P2;Temp;Humidity;BMP_temperature;BMP_pressure;BME280_temperature;BME280_humidity;BME280_pressure;Samples;Min_cycle;Max_cycle;Signal;HPM_P1;HPM_P2
2022/05/26 00:01:54;;;;;;;0.80;0.50;;;17.30;99.90;;;;;;4956582;28;20409;-71
2022/05/26 00:04:20;;;;;;;0.97;0.70;;;17.30;99.90;;;;;;4954877;28;20171;-70
2022/05/26 00:06:46;;;;;;;1.20;0.60;;;17.30;99.90;;;;;;4956661;28;20575;-70
2022/05/26 00:09:12;;;;;;;1.17;0.90;;;17.20;99.90;;;;;;4955170;28;20488;-71
2022/05/26 00:11:38;;;;;;;1.00;0.60;;;17.20;99.90;;;;;;4971275;28;20174;-71
2022/05/26 00:14:09;;;;;;;0.80;0.60;;;17.20;99.90;;;;;;4956594;28;20249;-71
2022/05/26 00:16:42;;;;;;;0.80;0.60;;;17.20;99.90;;;;;;4954728;28;20424;-71
2022/05/26 00:19:08;;;;;;;0.90;0.73;;;17.20;99.90;;;;;;4955435;28;20891;-71
2022/05/26 00:21:34;;;;;;;0.80;0.80;;;17.20;99.90;;;;;;4955148;28;20931;-71
2022/05/26 00:24:00;;;;;;;0.80;0.50;;;17.20;99.90;;;;;;4955866;28;20452;-71
2022/05/26 00:26:25;;;;;;;0.80;0.50;;;17.10;99.90;;;;;;4956290;28;20430;-71
2022/05/26 00:28:51;;;;;;;0.90;0.73;;;17.10;99.90;;;;;;4956085;28;20174;-70
2022/05/26 00:31:17;;;;;;;0.80;0.50;;;17.10;99.90;;;;;;4956299;28;20170;-71
2022/05/26 00:33:43;;;;;;;0.80;0.60;;;17.10;99.90;;;;;;4955534;28;20428;-71
2022/05/26 00:36:11;;;;;;;0.80;0.60;;;17.10;99.90;;;;;;4955639;28;20174;-71
2022/05/26 00:38:38;;;;;;;0.90;0.70;;;17.10;99.90;;;;;;4956122;28;20272;-70
2022/05/26 00:41:14;;;;;;;1.80;1.70;;;17.10;99.90;;;;;;4955968;28;20512;-71
2022/05/26 00:43:44;;;;;;;0.80;0.60;;;17.10;99.90;;;;;;4955483;28;20406;-71
2022/05/26 00:46:20;;;;;;;0.90;0.60;;;17.10;99.90;;;;;;4955117;28;20493;-70
2022/05/26 00:48:50;;;;;;;1.10;0.60;;;17.10;99.90;;;;;;4969965;28;20979;-71
2022/05/26 00:51:18;;;;;;;1.67;1.50;;;17.10;99.90;;;;;;4955571;28;20421;-71
2022/05/26 00:53:51;;;;;;;0.87;0.73;;;17.00;99.90;;;;;;4955827;28;20406;-70
2022/05/26 00:56:42;;;;;;;0.80;0.50;;;17.00;99.90;;;;;;4954753;28;20837;-71
2022/05/26 00:59:23;;;;;;;0.80;0.60;;;16.90;99.90;;;;;;4955635;28;20461;-70
2022/05/26 01:01:48;;;;;;;0.80;0.50;;;16.90;99.90;;;;;;4956649;28;20472;-71
2022/05/26 01:04:18;;;;;;;0.80;0.50;;;16.90;99.90;;;;;;4955697;28;20862;-70
2022/05/26 01:07:01;;;;;;;0.80;0.60;;;16.90;99.90;;;;;;4956584;28;20180;-71
2022/05/26 01:09:27;;;;;;;4.80;0.77;;;16.80;99.90;;;;;;4956484;28;20520;-70
2022/05/26 01:11:53;;;;;;;0.80;0.60;;;16.80;99.90;;;;;;4957332;28;20441;-71
2022/05/26 01:14:29;;;;;;;0.80;0.50;;;16.70;99.90;;;;;;4955046;28;20170;-73
2022/05/26 01:17:30;;;;;;;0.80;0.50;;;16.70;99.90;;;;;;4954181;28;20194;-71
2022/05/26 01:20:23;;;;;;;0.80;0.50;;;16.70;99.90;;;;;;4955288;28;20939;-71
2022/05/26 01:22:55;;;;;;;0.80;0.50;;;16.70;99.90;;;;;;4954311;28;20785;-71
2022/05/26 01:25:32;;;;;;;0.90;0.70;;;16.60;99.90;;;;;;4955325;28;20413;-70
2022/05/26 01:28:27;;;;;;;0.80;0.53;;;16.60;99.90;;;;;;4955861;28;20452;-70
2022/05/26 01:31:31;;;;;;;0.80;0.50;;;16.60;99.90;;;;;;4954793;28;20886;-70
2022/05/26 01:34:18;;;;;;;0.80;0.60;;;16.50;99.90;;;;;;4933363;29;20422;-71
2022/05/26 01:36:46;;;;;;;0.80;0.60;;;16.50;99.90;;;;;;4935346;29;20499;-71
2022/05/26 01:39:23;;;;;;;1.20;0.70;;;16.50;99.90;;;;;;4958532;28;20525;-70
2022/05/26 01:42:09;;;;;;;0.80;0.50;;;16.50;99.90;;;;;;4956892;28;20401;-70
2022/05/26 01:44:57;;;;;;;1.00;0.70;;;16.40;99.90;;;;;;4955793;28;20562;-70
2022/05/26 01:47:48;;;;;;;0.80;0.70;;;16.50;99.90;;;;;;4955217;28;20418;-69
2022/05/26 01:50:17;;;;;;;0.80;0.50;;;16.50;99.90;;;;;;4954615;28;20533;-70
2022/05/26 01:53:08;;;;;;;0.90;0.77;;;16.50;99.90;;;;;;4956701;28;20418;-71
2022/05/26 01:56:11;;;;;;;0.80;0.50;;;16.50;99.90;;;;;;4954684;28;20414;-70
2022/05/26 01:58:44;;;;;;;0.80;0.57;;;16.50;99.90;;;;;;4954176;28;20410;-71
2022/05/26 02:01:17;;;;;;;0.90;0.60;;;16.50;99.90;;;;;;4969154;28;20426;-71
2022/05/26 02:03:46;;;;;;;0.90;0.60;;;16.50;99.90;;;;;;4954310;28;21083;-71
2022/05/26 02:06:32;;;;;;;0.80;0.50;;;16.50;99.90;;;;;;4969225;28;20484;-71
2022/05/26 02:09:11;;;;;;;0.80;0.50;;;16.50;99.90;;;;;;4952801;28;20413;-71
2022/05/26 02:11:44;;;;;;;0.90;0.60;;;16.50;99.90;;;;;;4954464;28;20927;-70
2022/05/26 02:14:17;;;;;;;0.80;0.50;;;16.60;99.90;;;;;;4953947;28;20461;-71
2022/05/26 02:16:48;;;;;;;0.80;0.60;;;16.60;99.90;;;;;;4952951;28;20426;-71
2022/05/26 02:19:35;;;;;;;0.80;0.53;;;16.60;99.90;;;;;;4954172;28;20466;-71
2022/05/26 02:22:09;;;;;;;1.40;1.30;;;16.60;99.90;;;;;;4954101;28;20402;-71
2022/05/26 02:24:41;;;;;;;0.83;0.63;;;16.70;99.90;;;;;;4955135;28;20402;-71
2022/05/26 02:27:08;;;;;;;0.80;0.60;;;16.60;99.90;;;;;;4958317;28;20816;-71
2022/05/26 02:29:52;;;;;;;5.50;0.60;;;16.70;99.90;;;;;;4958204;28;20529;-70
2022/05/26 02:32:51;;;;;;;1.20;0.93;;;16.70;99.90;;;;;;4956676;28;20182;-71
2022/05/26 02:35:19;;;;;;;0.80;0.50;;;16.70;99.90;;;;;;4956436;28;21277;-71
2022/05/26 02:37:47;;;;;;;0.90;0.60;;;16.70;99.90;;;;;;4958140;28;20413;-71
2022/05/26 02:40:14;;;;;;;0.80;0.50;;;16.70;99.90;;;;;;4958167;28;20465;-71
2022/05/26 02:42:51;;;;;;;1.67;0.90;;;16.70;99.90;;;;;;4957505;28;20409;-72
2022/05/26 02:45:28;;;;;;;0.80;0.60;;;16.70;99.90;;;;;;4956749;28;20520;-70
2022/05/26 02:48:08;;;;;;;0.80;0.60;;;16.70;99.90;;;;;;4956584;28;20421;-71
2022/05/26 02:50:59;;;;;;;0.80;0.70;;;16.70;99.90;;;;;;4957917;28;20488;-71
2022/05/26 02:53:33;;;;;;;1.73;1.10;;;16.70;99.90;;;;;;4958302;28;20406;-70
2022/05/26 02:56:26;;;;;;;0.80;0.50;;;16.70;99.90;;;;;;4956284;28;20841;-71
2022/05/26 02:59:13;;;;;;;0.83;0.67;;;16.70;99.90;;;;;;4959329;28;20471;-71
2022/05/26 03:01:46;;;;;;;1.00;0.90;;;16.70;99.90;;;;;;4959959;28;20410;-71
2022/05/26 03:04:19;;;;;;;0.80;0.50;;;16.70;99.90;;;;;;4957931;28;20414;-71
2022/05/26 03:07:10;;;;;;;0.80;0.60;;;16.70;99.90;;;;;;4958956;28;20767;-71
2022/05/26 03:09:38;;;;;;;0.90;0.60;;;16.70;99.90;;;;;;4959068;28;20943;-71
2022/05/26 03:12:04;;;;;;;0.90;0.70;;;16.70;99.90;;;;;;4959108;28;20406;-71
2022/05/26 03:14:30;;;;;;;0.80;0.60;;;16.70;99.90;;;;;;4974713;28;20537;-71
2022/05/26 03:16:55;;;;;;;1.10;1.00;;;16.70;99.90;;;;;;4959030;28;20479;-70
2022/05/26 03:19:21;;;;;;;0.80;0.60;;;16.70;99.90;;;;;;4961190;28;20284;-70
2022/05/26 03:21:47;;;;;;;1.40;1.20;;;16.70;99.90;;;;;;4959764;28;20174;-70
2022/05/26 03:24:13;;;;;;;1.33;0.80;;;16.70;99.90;;;;;;4959888;28;20169;-71
2022/05/26 03:26:39;;;;;;;1.00;0.70;;;16.70;99.90;;;;;;4959774;28;20477;-71
2022/05/26 03:29:05;;;;;;;0.80;0.60;;;16.70;99.90;;;;;;4963724;28;20438;-70
2022/05/26 03:31:31;;;;;;;0.80;0.50;;;16.70;99.90;;;;;;4959420;28;20726;-71
2022/05/26 03:42:12;;;;;;;0.80;0.57;;;16.70;99.90;;;;;;4959688;29;20426;-71
2022/05/26 03:44:38;;;;;;;0.90;0.60;;;16.70;99.90;;;;;;4962436;28;20595;-70
2022/05/26 03:47:04;;;;;;;1.10;0.77;;;16.60;99.90;;;;;;4963051;28;20912;-70
2022/05/26 03:49:30;;;;;;;0.80;0.60;;;16.70;99.90;;;;;;4961388;28;20484;-71
2022/05/26 03:51:57;;;;;;;1.00;0.80;;;16.70;99.90;;;;;;4957761;29;20418;-70
2022/05/26 03:54:23;;;;;;;0.87;0.63;;;16.70;99.90;;;;;;4958437;28;20173;-70
2022/05/26 03:56:49;;;;;;;1.43;0.80;;;16.70;99.90;;;;;;4957307;28;20472;-71
2022/05/26 03:59:14;;;;;;;0.93;0.70;;;16.70;99.90;;;;;;4958024;28;20838;-70
2022/05/26 04:01:40;;;;;;;0.90;0.70;;;16.70;99.90;;;;;;4958035;28;20170;-71
2022/05/26 04:04:05;;;;;;;0.80;0.60;;;16.70;99.90;;;;;;4958584;28;20509;-71
2022/05/26 04:06:31;;;;;;;1.83;1.10;;;16.70;99.90;;;;;;4958311;28;20254;-71
2022/05/26 04:08:56;;;;;;;4.30;0.80;;;16.70;99.90;;;;;;4957194;28;20190;-70
2022/05/26 04:11:23;;;;;;;1.20;0.90;;;16.70;99.90;;;;;;4973300;28;20246;-71
2022/05/26 04:13:51;;;;;;;0.80;0.50;;;16.70;99.90;;;;;;4958437;28;20158;-71
2022/05/26 04:16:17;;;;;;;1.10;0.87;;;16.70;99.90;;;;;;4973662;28;20469;-70
2022/05/26 04:18:42;;;;;;;0.80;0.70;;;16.70;99.90;;;;;;4959221;28;20430;-71
2022/05/26 04:21:10;;;;;;;1.03;0.87;;;16.70;99.90;;;;;;4958876;28;20195;-71
2022/05/26 04:23:36;;;;;;;0.90;0.60;;;16.70;99.90;;;;;;4960322;28;20170;-70
2022/05/26 04:26:04;;;;;;;0.80;0.70;;;16.70;99.90;;;;;;4957750;28;20425;-71
2022/05/26 04:28:29;;;;;;;0.90;0.80;;;16.70;99.90;;;;;;4954960;28;20406;-70
2022/05/26 04:30:55;;;;;;;1.03;0.73;;;16.70;99.90;;;;;;4957043;28;20811;-70
2022/05/26 04:33:20;;;;;;;1.00;0.90;;;16.80;99.90;;;;;;4957694;28;20170;-70
2022/05/26 04:35:46;;;;;;;0.90;0.60;;;16.80;99.90;;;;;;4960048;28;20181;-70
2022/05/26 04:38:11;;;;;;;1.50;0.90;;;16.80;99.90;;;;;;4958015;28;20242;-71
2022/05/26 04:40:39;;;;;;;0.80;0.60;;;16.80;99.90;;;;;;4958450;28;20711;-70
2022/05/26 04:43:06;;;;;;;1.00;0.80;;;16.80;99.90;;;;;;4957074;28;20167;-71
2022/05/26 04:45:32;;;;;;;1.10;1.00;;;16.80;99.90;;;;;;4956263;28;20417;-70
2022/05/26 04:47:57;;;;;;;1.00;0.87;;;16.90;99.90;;;;;;4955646;28;20896;-71
2022/05/26 04:50:23;;;;;;;0.80;0.60;;;16.90;99.90;;;;;;4957320;28;20433;-71
2022/05/26 04:52:49;;;;;;;0.93;0.80;;;16.90;99.90;;;;;;4960764;28;20209;-71
2022/05/26 04:55:15;;;;;;;0.90;0.70;;;16.90;99.90;;;;;;4959013;28;20827;-71
2022/05/26 04:57:40;;;;;;;0.80;0.63;;;16.90;99.90;;;;;;4958868;28;20554;-71
2022/05/26 05:00:10;;;;;;;0.90;0.60;;;17.00;99.90;;;;;;4956959;28;20210;-71
2022/05/26 05:02:36;;;;;;;0.90;0.73;;;16.90;99.90;;;;;;4956605;28;20644;-71
2022/05/26 05:05:04;;;;;;;0.90;0.70;;;16.90;99.90;;;;;;4956453;28;20792;-70
2022/05/26 05:07:29;;;;;;;0.80;0.70;;;17.00;99.90;;;;;;4956260;28;20465;-71
2022/05/26 05:09:55;;;;;;;0.90;0.70;;;17.00;99.90;;;;;;4955682;29;20446;-71
2022/05/26 05:12:22;;;;;;;1.17;0.60;;;17.00;99.90;;;;;;4955407;28;20178;-71
2022/05/26 05:14:51;;;;;;;0.87;0.70;;;17.10;99.90;;;;;;4953552;28;20192;-70
2022/05/26 05:17:18;;;;;;;0.80;0.60;;;17.10;99.90;;;;;;4955703;28;20426;-71
2022/05/26 05:19:44;;;;;;;1.47;0.70;;;17.20;99.90;;;;;;4953906;29;20462;-71
2022/05/26 05:22:21;;;;;;;0.83;0.63;;;17.20;99.90;;;;;;4955644;28;20424;-71
2022/05/26 05:24:55;;;;;;;0.80;0.70;;;17.20;99.90;;;;;;4954980;28;20469;-71
2022/05/26 05:27:33;;;;;;;1.60;1.07;;;17.30;99.90;;;;;;4955113;28;20413;-71
2022/05/26 05:30:04;;;;;;;1.67;0.80;;;17.40;99.90;;;;;;4955007;28;20803;-71
2022/05/26 05:32:46;;;;;;;0.90;0.70;;;17.40;99.90;;;;;;4955027;28;20402;-71
2022/05/26 05:35:15;;;;;;;0.90;0.70;;;17.50;99.90;;;;;;4954778;28;20830;-71
2022/05/26 05:37:42;;;;;;;1.73;0.80;;;17.60;99.90;;;;;;4955110;28;20821;-71
2022/05/26 05:40:08;;;;;;;0.90;0.77;;;17.60;99.90;;;;;;4954908;28;20540;-71
2022/05/26 05:42:34;;;;;;;0.80;0.50;;;17.70;99.90;;;;;;4953313;28;20422;-71
2022/05/26 05:45:00;;;;;;;0.80;0.60;;;17.80;99.90;;;;;;4955767;28;20402;-71
2022/05/26 05:47:26;;;;;;;1.30;0.90;;;17.80;99.90;;;;;;4954233;28;20502;-71
2022/05/26 05:49:51;;;;;;;2.23;1.00;;;17.90;99.90;;;;;;4955545;28;20190;-71
2022/05/26 05:52:21;;;;;;;0.90;0.70;;;18.00;99.90;;;;;;4953677;28;20181;-71
2022/05/26 05:54:46;;;;;;;1.30;1.03;;;18.20;99.90;;;;;;4954898;28;20174;-71
2022/05/26 05:57:12;;;;;;;1.07;0.97;;;18.40;99.90;;;;;;4969406;28;20421;-71
2022/05/26 05:59:37;;;;;;;2.37;0.83;;;18.50;99.90;;;;;;4953999;28;20265;-70
2022/05/26 06:02:04;;;;;;;1.20;0.70;;;18.60;99.90;;;;;;4954695;28;20178;-71
2022/05/26 06:04:29;;;;;;;2.03;1.07;;;18.70;99.90;;;;;;4953512;28;20257;-71
2022/05/26 06:06:55;;;;;;;1.07;0.77;;;18.90;99.90;;;;;;4954400;28;20836;-72
2022/05/26 06:09:20;;;;;;;0.90;0.80;;;19.10;99.90;;;;;;4954369;28;20244;-70
2022/05/26 06:11:47;;;;;;;0.93;0.83;;;19.30;99.90;;;;;;4955416;28;20232;-71
2022/05/26 06:14:13;;;;;;;1.27;1.17;;;19.40;99.90;;;;;;4953161;28;20182;-71
2022/05/26 06:16:39;;;;;;;1.00;0.77;;;19.50;99.90;;;;;;4954294;28;20437;-71
2022/05/26 06:19:05;;;;;;;1.43;1.23;;;19.50;99.90;;;;;;4955580;28;20814;-71
2022/05/26 06:21:32;;;;;;;0.93;0.80;;;19.50;99.90;;;;;;4953875;28;20170;-71
2022/05/26 06:23:58;;;;;;;0.80;0.80;;;19.50;99.90;;;;;;4954841;28;20536;-70
2022/05/26 06:26:28;;;;;;;1.23;1.03;;;19.50;99.90;;;;;;4954004;28;20409;-71
2022/05/26 06:31:39;;;;;;;1.17;1.07;;;20.00;99.90;;;;;;4954591;29;20473;-72
2022/05/26 06:39:33;;;;;;;0.80;0.50;;;20.50;99.90;;;;;;4955245;29;20476;-72
2022/05/26 06:42:08;;;;;;;1.33;0.77;;;20.60;99.90;;;;;;4954500;28;20433;-71
2022/05/26 06:44:36;;;;;;;1.13;1.03;;;20.90;99.90;;;;;;4954141;28;20799;-71
2022/05/26 06:47:02;;;;;;;1.43;1.33;;;21.30;99.90;;;;;;4970826;28;20446;-71
2022/05/26 06:49:28;;;;;;;0.90;0.77;;;21.60;99.90;;;;;;4970634;28;20438;-71
2022/05/26 06:51:53;;;;;;;1.60;0.90;;;21.80;99.90;;;;;;4954785;28;20645;-70
2022/05/26 06:54:19;;;;;;;1.00;0.90;;;21.90;99.90;;;;;;4955486;28;20573;-71
2022/05/26 06:56:44;;;;;;;1.03;0.80;;;22.30;99.90;;;;;;4955621;29;20243;-71
2022/05/26 06:59:10;;;;;;;1.17;1.07;;;22.70;99.90;;;;;;4955241;29;20210;-72
2022/05/26 07:01:35;;;;;;;1.10;0.80;;;23.00;99.90;;;;;;4955447;28;20182;-71
2022/05/26 07:04:01;;;;;;;0.83;0.70;;;23.20;99.90;;;;;;4953735;28;20174;-71
2022/05/26 07:06:28;;;;;;;1.30;1.10;;;23.10;99.90;;;;;;4954058;28;20183;-71
2022/05/26 07:08:54;;;;;;;1.30;1.00;;;23.20;99.90;;;;;;4954782;28;20188;-72
2022/05/26 07:11:20;;;;;;;1.43;1.03;;;23.30;99.90;;;;;;4954815;28;20429;-71
2022/05/26 07:13:46;;;;;;;0.90;0.80;;;23.20;99.90;;;;;;4956473;28;20209;-71
2022/05/26 07:16:12;;;;;;;1.47;0.80;;;23.10;99.90;;;;;;4957453;28;20501;-71
2022/05/26 07:18:39;;;;;;;2.10;1.20;;;23.00;99.90;;;;;;4958644;28;20433;-71
2022/05/26 07:21:07;;;;;;;1.20;1.10;;;23.70;99.90;;;;;;4958094;28;20500;-71
2022/05/26 07:23:34;;;;;;;1.00;0.90;;;25.10;99.90;;;;;;4957828;28;20447;-72
2022/05/26 07:26:03;;;;;;;1.43;1.30;;;26.10;99.90;;;;;;4957406;28;20436;-72
2022/05/26 07:28:28;;;;;;;1.70;1.33;;;26.00;99.90;;;;;;4957774;28;20479;-71
2022/05/26 07:30:54;;;;;;;1.40;1.03;;;25.70;99.90;;;;;;4957520;28;20438;-71
2022/05/26 07:33:19;;;;;;;10.37;1.77;;;25.10;99.90;;;;;;4956356;28;20590;-72
2022/05/26 07:35:46;;;;;;;5.10;1.40;;;24.60;99.90;;;;;;4956564;28;20199;-71
2022/05/26 07:43:42;;;;;;;1.20;0.77;;;25.60;99.90;;;;;;4957015;29;20805;-72
2022/05/26 07:46:09;;;;;;;1.30;0.90;;;27.90;99.90;;;;;;4957450;28;20418;-71
2022/05/26 07:48:34;;;;;;;1.77;1.03;;;28.20;99.60;;;;;;4957161;28;20432;-71
2022/05/26 07:51:00;;;;;;;1.10;1.00;;;27.80;95.00;;;;;;4958736;28;20434;-70
2022/05/26 07:53:25;;;;;;;1.10;0.90;;;27.40;93.10;;;;;;4956611;28;20198;-72
2022/05/26 07:55:51;;;;;;;1.20;1.10;;;26.90;91.30;;;;;;4956383;28;20221;-72
2022/05/26 07:58:17;;;;;;;1.50;1.30;;;27.20;92.60;;;;;;4956274;28;20178;-71
2022/05/26 08:00:43;;;;;;;1.10;1.00;;;28.40;92.00;;;;;;4956298;28;20492;-71
2022/05/26 08:03:09;;;;;;;1.10;1.00;;;29.70;87.80;;;;;;4957048;28;20181;-71
2022/05/26 08:05:36;;;;;;;1.20;1.10;;;29.50;78.50;;;;;;4958729;28;20174;-70
2022/05/26 08:08:02;;;;;;;1.13;0.93;;;28.90;74.70;;;;;;4956586;28;20410;-72
2022/05/26 08:10:28;;;;;;;1.60;1.50;;;28.20;73.60;;;;;;4955653;28;20438;-71
2022/05/26 08:12:53;;;;;;;1.77;1.67;;;27.70;74.20;;;;;;4957297;28;20762;-71
2022/05/26 08:15:19;;;;;;;1.03;0.93;;;27.40;74.80;;;;;;4957930;28;20608;-71
2022/05/26 08:17:45;;;;;;;1.50;1.00;;;27.10;76.20;;;;;;4973220;28;20189;-71
2022/05/26 08:20:10;;;;;;;1.30;0.90;;;27.70;79.80;;;;;;4959124;28;20572;-72
2022/05/26 08:22:36;;;;;;;1.67;1.10;;;28.50;77.90;;;;;;4957493;28;20167;-71
2022/05/26 08:25:03;;;;;;;2.90;1.10;;;28.40;75.60;;;;;;4956883;28;20197;-71
2022/05/26 08:27:28;;;;;;;1.00;0.90;;;28.00;73.10;;;;;;4959679;28;20217;-72
2022/05/26 08:29:54;;;;;;;1.00;0.80;;;27.60;73.00;;;;;;4960136;28;20434;-71
2022/05/26 08:32:21;;;;;;;1.13;1.03;;;27.30;74.40;;;;;;4975103;28;20185;-71
2022/05/26 08:34:47;;;;;;;1.20;1.00;;;27.10;75.20;;;;;;4957541;28;20181;-71
2022/05/26 08:37:20;;;;;;;1.60;1.10;;;26.90;75.00;;;;;;4957721;28;20414;-72
2022/05/26 08:39:46;;;;;;;0.90;0.80;;;27.80;78.90;;;;;;4959338;28;20202;-71
2022/05/26 08:42:24;;;;;;;0.90;0.70;;;30.40;78.80;;;;;;4960629;28;20409;-71
2022/05/26 08:44:55;;;;;;;1.37;1.27;;;32.20;68.00;;;;;;4958271;28;20405;-71
2022/05/26 08:47:22;;;;;;;1.30;1.00;;;32.80;59.50;;;;;;4959963;28;20501;-72
2022/05/26 08:49:57;;;;;;;1.23;1.10;;;33.00;56.70;;;;;;4958659;28;20444;-71
2022/05/26 08:52:30;;;;;;;0.90;0.80;;;34.30;56.10;;;;;;4955186;28;20423;-72
2022/05/26 08:55:21;;;;;;;1.83;1.73;;;36.50;52.40;;;;;;4956607;28;20414;-70
2022/05/26 08:58:06;;;;;;;1.20;1.10;;;36.90;48.30;;;;;;4957516;28;20414;-70
2022/05/26 09:00:32;;;;;;;1.30;1.20;;;36.10;47.00;;;;;;4957471;28;20540;-70
2022/05/26 09:03:00;;;;;;;1.37;1.27;;;35.30;45.70;;;;;;4956481;28;20916;-69
2022/05/26 09:05:30;;;;;;;1.20;1.10;;;34.30;44.60;;;;;;4956155;28;20409;-70
2022/05/26 09:13:53;;;;;;;1.70;1.00;;;33.80;46.70;;;;;;4956059;29;20926;-70
2022/05/26 09:16:20;;;;;;;1.10;1.00;;;33.50;46.70;;;;;;4955735;28;20406;-70
2022/05/26 09:19:06;;;;;;;1.00;0.90;;;32.90;46.50;;;;;;4958571;28;20476;-70
2022/05/26 09:21:32;;;;;;;1.17;1.07;;;32.10;46.70;;;;;;4956734;28;20414;-70
2022/05/26 09:24:26;;;;;;;0.90;0.80;;;31.30;46.80;;;;;;4956722;28;20983;-70
2022/05/26 09:26:55;;;;;;;1.00;0.90;;;30.60;47.70;;;;;;4955092;28;20638;-70
2022/05/26 09:29:27;;;;;;;2.00;1.23;;;30.30;48.90;;;;;;4955638;29;20441;-69
2022/05/26 09:31:54;;;;;;;1.37;1.27;;;31.00;50.50;;;;;;4957463;28;20742;-70
2022/05/26 09:34:21;;;;;;;1.23;1.13;;;33.10;50.70;;;;;;4954834;28;20436;-70
2022/05/26 09:36:56;;;;;;;1.63;1.00;;;34.90;49.30;;;;;;4955343;28;20416;-70
2022/05/26 09:39:34;;;;;;;2.30;1.20;;;36.80;47.70;;;;;;4956721;28;20450;-70
2022/05/26 09:42:01;;;;;;;1.43;1.27;;;39.30;45.20;;;;;;4953800;28;20417;-71
2022/05/26 09:44:49;;;;;;;1.73;1.20;;;41.40;42.20;;;;;;4969780;28;20414;-71
2022/05/26 09:47:37;;;;;;;1.77;1.67;;;42.70;40.30;;;;;;4954703;28;20756;-71
2022/05/26 09:50:10;;;;;;;1.47;1.37;;;44.30;37.60;;;;;;4954499;28;20421;-72
2022/05/26 09:52:42;;;;;;;1.33;1.20;;;45.00;34.30;;;;;;4954351;28;20405;-70
2022/05/26 09:55:21;;;;;;;1.40;1.30;;;44.30;33.60;;;;;;4954716;28;20406;-71
2022/05/26 09:57:47;;;;;;;1.60;1.40;;;44.50;32.80;;;;;;4954065;28;20465;-71
2022/05/26 10:00:38;;;;;;;1.10;1.00;;;43.80;30.90;;;;;;4954209;28;20456;-71
2022/05/26 10:03:25;;;;;;;1.47;1.37;;;42.60;30.80;;;;;;4954715;28;20409;-71
2022/05/26 10:06:06;;;;;;;1.57;1.07;;;41.40;31.70;;;;;;4958698;29;20410;-71
2022/05/26 10:08:47;;;;;;;1.67;1.57;;;41.80;33.20;;;;;;4956525;28;20421;-70
2022/05/26 10:11:30;;;;;;;1.60;1.50;;;43.20;32.20;;;;;;4954512;28;20927;-71
2022/05/26 10:14:15;;;;;;;1.47;1.37;;;44.30;31.40;;;;;;4954935;28;20414;-70
2022/05/26 10:16:46;;;;;;;1.20;1.10;;;45.70;30.00;;;;;;4953176;29;20812;-71
2022/05/26 10:19:49;;;;;;;1.40;1.30;;;46.50;29.80;;;;;;4954557;28;20408;-70
2022/05/26 10:22:47;;;;;;;1.40;1.17;;;46.00;28.40;;;;;;4954558;28;20384;-71
2022/05/26 10:25:35;;;;;;;1.90;1.80;;;45.20;28.50;;;;;;4955740;28;20449;-70
2022/05/26 10:28:22;;;;;;;1.20;1.10;;;43.60;27.80;;;;;;4957681;28;20830;-71
2022/05/26 10:30:56;;;;;;;1.40;1.27;;;41.90;28.40;;;;;;4957153;28;20426;-70
2022/05/26 10:33:34;;;;;;;1.30;1.20;;;40.80;29.40;;;;;;4955597;28;20409;-72
2022/05/26 10:36:21;;;;;;;1.33;1.20;;;40.80;29.20;;;;;;4956610;28;20405;-73
2022/05/26 10:39:25;;;;;;;1.00;0.90;;;39.70;29.20;;;;;;4956230;28;20466;-71
2022/05/26 10:41:54;;;;;;;1.10;1.00;;;38.40;29.90;;;;;;4956327;29;20444;-70
2022/05/26 10:44:31;;;;;;;1.90;1.20;;;37.00;30.90;;;;;;4956570;28;20404;-70
2022/05/26 10:47:07;;;;;;;1.00;0.90;;;36.40;32.20;;;;;;4957637;28;20405;-71
2022/05/26 10:49:47;;;;;;;0.90;0.80;;;36.00;32.60;;;;;;4956178;28;20437;-70
2022/05/26 10:52:32;;;;;;;3.33;0.97;;;35.20;33.60;;;;;;4957912;28;20915;-70
2022/05/26 10:55:04;;;;;;;1.23;1.00;;;34.30;33.40;;;;;;4957494;28;20915;-71
2022/05/26 10:57:43;;;;;;;0.90;0.70;;;33.30;34.20;;;;;;4958023;28;20405;-70
2022/05/26 11:00:10;;;;;;;1.00;0.80;;;33.30;35.40;;;;;;4958412;28;20460;-70
2022/05/26 11:02:51;;;;;;;1.20;0.90;;;33.60;35.70;;;;;;4958672;28;20416;-70
2022/05/26 11:05:27;;;;;;;1.17;0.93;;;33.20;35.80;;;;;;4958680;28;20402;-70
2022/05/26 11:08:11;;;;;;;1.60;0.90;;;32.60;36.10;;;;;;4957864;28;20420;-70
2022/05/26 11:10:46;;;;;;;0.90;0.80;;;32.00;36.60;;;;;;4957550;28;20996;-72
2022/05/26 11:13:34;;;;;;;1.10;1.00;;;31.40;37.40;;;;;;4957508;28;20517;-72
2022/05/26 11:19:47;;;;;;;1.50;1.40;;;34.40;39.50;;;;;;4958644;29;20771;-72
2022/05/26 11:22:14;;;;;;;1.27;1.17;;;35.90;36.80;;;;;;4939897;29;20419;-72
2022/05/26 11:24:40;;;;;;;3.20;1.73;;;35.50;36.10;;;;;;4958761;28;20492;-71
2022/05/26 11:27:12;;;;;;;0.90;0.80;;;34.90;36.10;;;;;;4961410;28;20522;-72
2022/05/26 11:29:46;;;;;;;1.10;0.90;;;35.40;36.80;;;;;;4962663;28;20528;-72
2022/05/26 11:38:11;;;;;;;1.00;0.83;;;34.60;34.90;;;;;;4957812;29;20400;-71
2022/05/26 11:41:03;;;;;;;0.90;0.80;;;33.70;34.40;;;;;;4957035;28;20529;-72
2022/05/26 11:43:35;;;;;;;1.10;0.87;;;33.00;35.50;;;;;;4959178;28;20406;-72
2022/05/26 11:46:01;;;;;;;1.20;0.90;;;33.30;36.90;;;;;;4959499;28;20398;-72
2022/05/26 11:48:32;;;;;;;2.80;1.30;;;34.10;36.70;;;;;;4957267;28;20962;-72
2022/05/26 11:51:24;;;;;;;1.40;1.07;;;33.90;36.00;;;;;;4957604;28;20268;-72
2022/05/26 11:53:50;;;;;;;1.40;1.30;;;33.20;35.40;;;;;;4955746;29;20428;-72
2022/05/26 11:56:25;;;;;;;1.13;1.00;;;32.20;36.00;;;;;;4956320;28;20460;-72
2022/05/26 11:59:28;;;;;;;1.00;0.90;;;31.40;36.70;;;;;;4956065;28;20500;-72
2022/05/26 12:02:14;;;;;;;2.90;1.20;;;31.00;37.70;;;;;;4956782;28;20409;-72
2022/05/26 12:04:42;;;;;;;1.47;1.23;;;32.80;38.40;;;;;;4956607;28;20401;-72
2022/05/26 12:07:22;;;;;;;0.97;0.80;;;33.90;37.00;;;;;;4956661;28;20409;-72
2022/05/26 12:09:54;;;;;;;1.13;1.03;;;36.00;36.90;;;;;;4959509;28;20509;-72
2022/05/26 12:12:23;;;;;;;1.20;0.90;;;37.00;34.80;;;;;;4963842;28;20911;-73
2022/05/26 12:14:54;;;;;;;1.10;0.90;;;37.40;34.80;;;;;;4963713;28;20414;-72
2022/05/26 12:17:31;;;;;;;1.37;1.20;;;38.40;34.60;;;;;;4962059;28;20422;-70
2022/05/26 12:19:57;;;;;;;1.00;0.90;;;38.10;33.70;;;;;;4960926;29;20460;-71
2022/05/26 12:22:23;;;;;;;1.20;1.10;;;37.40;33.20;;;;;;4963848;28;20402;-70
2022/05/26 12:25:07;;;;;;;1.13;1.03;;;36.60;33.60;;;;;;4961734;28;20470;-71
2022/05/26 12:27:53;;;;;;;1.30;1.20;;;36.90;34.70;;;;;;4957987;28;20834;-70
2022/05/26 12:31:03;;;;;;;1.70;1.27;;;38.70;34.00;;;;;;4958892;28;20488;-70
2022/05/26 12:34:13;;;;;;;2.90;2.10;;;40.00;33.60;;;;;;4954163;29;20500;-71
2022/05/26 12:37:07;;;;;;;2.73;2.63;;;41.70;31.20;;;;;;4943355;28;20508;-72
2022/05/26 12:39:44;;;;;;;3.00;2.80;;;42.70;31.00;;;;;;4955034;29;21001;-71
2022/05/26 12:42:19;;;;;;;2.40;2.20;;;43.50;30.20;;;;;;4956870;28;20378;-71
2022/05/26 12:44:51;;;;;;;2.70;2.50;;;42.70;28.30;;;;;;4957118;28;20401;-71
2022/05/26 12:47:26;;;;;;;2.60;2.40;;;41.50;28.20;;;;;;4958819;28;20786;-71
2022/05/26 12:50:06;;;;;;;3.03;2.83;;;40.10;28.70;;;;;;4958138;28;20434;-70
2022/05/26 12:52:42;;;;;;;1.50;1.30;;;38.90;29.50;;;;;;4961668;28;20921;-71
2022/05/26 12:55:17;;;;;;;1.77;1.67;;;38.00;30.30;;;;;;4958976;28;20756;-70
2022/05/26 12:57:50;;;;;;;1.93;1.83;;;38.40;31.70;;;;;;4958181;28;20409;-71
2022/05/26 13:00:32;;;;;;;1.10;1.00;;;39.80;32.20;;;;;;4956996;28;20820;-71
2022/05/26 13:03:02;;;;;;;1.50;1.40;;;40.20;31.80;;;;;;4958662;28;20402;-71
2022/05/26 13:05:30;;;;;;;2.57;2.30;;;39.80;31.90;;;;;;4956430;28;20482;-71
2022/05/26 13:07:57;;;;;;;2.00;1.83;;;40.40;32.20;;;;;;4970657;28;20413;-71
2022/05/26 13:10:38;;;;;;;2.90;2.70;;;40.70;31.50;;;;;;4954695;28;20800;-71
2022/05/26 13:13:17;;;;;;;2.77;2.57;;;40.20;30.00;;;;;;4955611;28;20777;-71
2022/05/26 13:15:42;;;;;;;2.33;2.13;;;39.60;30.10;;;;;;4955896;28;20920;-71
2022/05/26 13:18:17;;;;;;;3.53;1.80;;;38.90;30.50;;;;;;4955912;28;20407;-71
2022/05/26 13:20:42;;;;;;;1.33;1.23;;;38.10;30.00;;;;;;4955766;28;20679;-69
2022/05/26 13:23:08;;;;;;;1.20;1.10;;;37.30;30.00;;;;;;4956890;28;20421;-71
2022/05/26 13:25:35;;;;;;;1.43;1.33;;;36.40;30.30;;;;;;4957071;28;20237;-71
2022/05/26 13:28:04;;;;;;;2.13;1.10;;;35.60;31.20;;;;;;4958485;28;21172;-71
2022/05/26 13:33:24;;;;;;;1.50;1.40;;;34.70;32.60;;;;;;4956210;29;21011;-73
2022/05/26 13:35:56;;;;;;;1.10;1.00;;;34.10;32.50;;;;;;4955676;28;20410;-73
2022/05/26 13:38:43;;;;;;;1.00;0.90;;;33.60;32.90;;;;;;4954628;28;20406;-73
2022/05/26 13:41:12;;;;;;;1.40;1.07;;;33.00;33.40;;;;;;4955054;28;20462;-73
2022/05/26 13:43:42;;;;;;;1.43;1.30;;;32.70;34.30;;;;;;4954906;28;20452;-73
2022/05/26 13:46:09;;;;;;;3.00;1.60;;;32.40;35.00;;;;;;4953402;28;20409;-73
2022/05/26 13:48:36;;;;;;;1.23;1.13;;;32.10;35.70;;;;;;4954132;29;20421;-73
2022/05/26 13:51:13;;;;;;;1.40;1.30;;;31.90;36.20;;;;;;4969839;28;20452;-72
2022/05/26 13:53:46;;;;;;;1.73;1.60;;;31.60;36.20;;;;;;4955502;28;20405;-73
2022/05/26 13:56:36;;;;;;;1.50;1.30;;;31.30;36.00;;;;;;4954180;28;20437;-73